Time;durP1;ratioP1;P1;durP2;ratioP2;P2;SDS_P1;SDS_P2;PMS_P1;PMS_P2;Temp;Humidity;BMP_temperature;BMP_pressure;BME280_temperature;BME280_humidity;BME280_pressure;Samples;Min_cycle;Max_cycle;Signal;HPM_P1;HPM_P2
2023/06/25 00:02:12;;;;;;;3.85;2.55;;;;;;;;;;4966790;28;20051;-75
2023/06/25 00:04:42;;;;;;;8.30;3.30;;;;;;;;;;4969554;28;20050;-75
2023/06/25 00:07:13;;;;;;;8.23;3.08;;;;;;;;;;4967843;28;20057;-75
2023/06/25 00:09:53;;;;;;;6.03;3.05;;;;;;;;;;4969442;28;20054;-75
2023/06/25 00:12:24;;;;;;;8.75;3.08;;;;;;;;;;4969262;28;20047;-76
2023/06/25 00:14:54;;;;;;;7.40;2.13;;;;;;;;;;4967898;28;20071;-75
2023/06/25 00:17:27;;;;;;;5.47;2.45;;;;;;;;;;4968818;28;20054;-75
2023/06/25 00:19:59;;;;;;;3.35;2.22;;;;;;;;;;4969460;28;20046;-75
2023/06/25 00:22:30;;;;;;;5.30;2.58;;;;;;;;;;4968488;28;20545;-74
2023/06/25 00:25:01;;;;;;;5.07;2.53;;;;;;;;;;4969062;28;20406;-74
2023/06/25 00:27:30;;;;;;;9.00;2.30;;;;;;;;;;4969172;28;20055;-76
2023/06/25 00:30:03;;;;;;;6.75;2.20;;;;;;;;;;4969318;28;20046;-76
2023/06/25 00:32:34;;;;;;;8.07;2.10;;;;;;;;;;4967207;28;20051;-76
2023/06/25 00:35:06;;;;;;;2.08;1.63;;;;;;;;;;4967204;28;20533;-76
2023/06/25 00:37:40;;;;;;;5.13;2.42;;;;;;;;;;4966781;28;20461;-76
2023/06/25 00:40:12;;;;;;;7.40;2.17;;;;;;;;;;4967235;28;20047;-76
2023/06/25 00:42:44;;;;;;;9.48;2.00;;;;;;;;;;4968138;28;20123;-76
2023/06/25 00:45:15;;;;;;;7.05;1.95;;;;;;;;;;4968783;28;20532;-76
2023/06/25 00:47:45;;;;;;;8.20;2.85;;;;;;;;;;4968891;28;20442;-76
2023/06/25 00:50:21;;;;;;;5.43;2.00;;;;;;;;;;4968463;28;20497;-76
2023/06/25 00:52:54;;;;;;;3.78;2.13;;;;;;;;;;4968426;28;20055;-74
2023/06/25 00:55:25;;;;;;;5.78;1.95;;;;;;;;;;4968860;28;20497;-75
2023/06/25 00:58:00;;;;;;;4.50;2.70;;;;;;;;;;4966118;28;20442;-75
2023/06/25 01:00:36;;;;;;;5.28;1.92;;;;;;;;;;4951968;28;20059;-75
2023/06/25 01:03:13;;;;;;;3.67;1.90;;;;;;;;;;4968340;28;20510;-75
2023/06/25 01:05:57;;;;;;;7.68;2.17;;;;;;;;;;4968913;28;20051;-75
2023/06/25 01:08:49;;;;;;;7.70;2.40;;;;;;;;;;4967298;28;20498;-75
2023/06/25 01:11:20;;;;;;;2.67;2.30;;;;;;;;;;4966691;28;20433;-75
2023/06/25 01:13:50;;;;;;;4.38;2.08;;;;;;;;;;4967093;28;20054;-75
2023/06/25 01:16:22;;;;;;;7.82;2.53;;;;;;;;;;4966475;28;20523;-75
2023/06/25 01:18:52;;;;;;;6.03;2.03;;;;;;;;;;4968381;28;20375;-74
2023/06/25 01:21:35;;;;;;;2.97;1.92;;;;;;;;;;4968658;28;20051;-74
2023/06/25 01:24:07;;;;;;;9.48;2.10;;;;;;;;;;4965953;28;21010;-76
2023/06/25 01:26:37;;;;;;;3.53;2.33;;;;;;;;;;4967596;28;20426;-75
2023/06/25 01:29:07;;;;;;;4.88;2.60;;;;;;;;;;4968128;28;20403;-77
2023/06/25 01:31:40;;;;;;;4.65;2.28;;;;;;;;;;4967678;28;20506;-75
2023/06/25 01:34:11;;;;;;;3.05;2.20;;;;;;;;;;4968055;28;20051;-75
2023/06/25 01:36:41;;;;;;;7.13;2.00;;;;;;;;;;4967283;28;20518;-75
2023/06/25 01:39:12;;;;;;;6.03;2.33;;;;;;;;;;4967910;28;20066;-75
2023/06/25 01:41:43;;;;;;;4.55;2.28;;;;;;;;;;4965578;28;20498;-76
2023/06/25 01:44:20;;;;;;;4.28;2.30;;;;;;;;;;4967568;28;20042;-75
2023/06/25 01:46:51;;;;;;;3.78;2.47;;;;;;;;;;4965468;28;20425;-76
2023/06/25 01:49:21;;;;;;;7.57;2.30;;;;;;;;;;4967953;28;20413;-75
2023/06/25 01:52:02;;;;;;;7.10;2.05;;;;;;;;;;4967826;28;20050;-75
2023/06/25 01:54:34;;;;;;;5.72;2.03;;;;;;;;;;4966136;28;20539;-75
2023/06/25 01:57:05;;;;;;;7.85;2.70;;;;;;;;;;4964977;28;20429;-75
2023/06/25 01:59:36;;;;;;;4.32;2.15;;;;;;;;;;4965358;28;20054;-77
2023/06/25 02:02:06;;;;;;;3.92;2.22;;;;;;;;;;4930025;29;20055;-75
2023/06/25 02:04:37;;;;;;;4.10;2.08;;;;;;;;;;4947842;29;20043;-75
2023/06/25 02:07:07;;;;;;;11.05;2.22;;;;;;;;;;4930023;29;20054;-77
2023/06/25 02:09:45;;;;;;;4.78;2.65;;;;;;;;;;4947964;29;20490;-76
2023/06/25 02:12:15;;;;;;;3.83;2.63;;;;;;;;;;4930178;29;20082;-76
2023/06/25 02:14:46;;;;;;;5.03;2.80;;;;;;;;;;4947467;28;20132;-75
2023/06/25 02:17:17;;;;;;;5.38;2.45;;;;;;;;;;4930309;29;20051;-74
2023/06/25 02:19:47;;;;;;;6.15;2.97;;;;;;;;;;4966595;28;20049;-74
2023/06/25 02:22:17;;;;;;;10.00;2.70;;;;;;;;;;4964860;28;20050;-75
2023/06/25 02:24:48;;;;;;;6.43;3.08;;;;;;;;;;4967274;28;20053;-76
2023/06/25 02:27:25;;;;;;;5.40;3.25;;;;;;;;;;4966857;28;20042;-74
2023/06/25 02:29:56;;;;;;;8.18;3.45;;;;;;;;;;4966709;28;20058;-77
2023/06/25 02:32:26;;;;;;;7.78;3.05;;;;;;;;;;4964612;28;20058;-76
2023/06/25 02:34:56;;;;;;;4.82;2.78;;;;;;;;;;4963895;28;20054;-74
2023/06/25 02:37:26;;;;;;;5.10;2.88;;;;;;;;;;4965794;28;20058;-75
2023/06/25 02:39:58;;;;;;;6.15;2.90;;;;;;;;;;4964772;28;20051;-75
2023/06/25 02:42:29;;;;;;;5.15;2.97;;;;;;;;;;4964711;28;20061;-75
2023/06/25 02:45:00;;;;;;;6.30;3.10;;;;;;;;;;4949141;28;20047;-74
2023/06/25 02:47:30;;;;;;;4.72;3.08;;;;;;;;;;4964509;28;20552;-75
2023/06/25 02:50:02;;;;;;;4.97;2.40;;;;;;;;;;4964269;28;20062;-75
2023/06/25 02:52:35;;;;;;;6.65;2.72;;;;;;;;;;4963663;28;20123;-75
2023/06/25 02:55:05;;;;;;;6.88;2.92;;;;;;;;;;4964583;28;20051;-75
2023/06/25 02:57:36;;;;;;;7.25;2.67;;;;;;;;;;4966653;28;20521;-75
2023/06/25 03:00:07;;;;;;;7.55;2.50;;;;;;;;;;4964889;28;20059;-75
2023/06/25 03:02:40;;;;;;;5.05;2.95;;;;;;;;;;4964511;28;20399;-75
2023/06/25 03:05:11;;;;;;;10.23;2.85;;;;;;;;;;4964250;28;20050;-75
2023/06/25 03:07:58;;;;;;;4.35;2.33;;;;;;;;;;4966364;28;20055;-75
2023/06/25 03:10:33;;;;;;;4.72;2.35;;;;;;;;;;4964519;28;20073;-74
2023/06/25 03:13:05;;;;;;;7.47;2.75;;;;;;;;;;4966787;28;20042;-75
2023/06/25 03:15:35;;;;;;;4.88;2.42;;;;;;;;;;4964699;28;20059;-77
2023/06/25 03:18:06;;;;;;;3.88;2.42;;;;;;;;;;4963702;28;20050;-74
2023/06/25 03:20:37;;;;;;;4.40;2.78;;;;;;;;;;4965715;28;20449;-74
2023/06/25 03:23:07;;;;;;;7.60;2.70;;;;;;;;;;4965525;28;20046;-75
2023/06/25 03:25:39;;;;;;;4.38;3.10;;;;;;;;;;4964655;28;20426;-75
2023/06/25 03:28:35;;;;;;;8.80;3.10;;;;;;;;;;4963499;28;20055;-75
2023/06/25 03:31:06;;;;;;;7.65;2.78;;;;;;;;;;4964330;28;20119;-75
2023/06/25 03:33:44;;;;;;;7.15;2.78;;;;;;;;;;4965210;28;20585;-74
2023/06/25 03:36:15;;;;;;;6.47;2.80;;;;;;;;;;4966873;28;20061;-74
2023/06/25 03:38:45;;;;;;;4.78;2.28;;;;;;;;;;4967723;28;20625;-75
2023/06/25 03:41:16;;;;;;;7.88;2.60;;;;;;;;;;4968073;28;20054;-75
2023/06/25 03:43:47;;;;;;;5.05;2.97;;;;;;;;;;4968211;28;20445;-75
2023/06/25 03:46:17;;;;;;;5.88;2.72;;;;;;;;;;4969599;28;20066;-75
2023/06/25 03:48:49;;;;;;;4.25;2.65;;;;;;;;;;4967429;28;20066;-75
2023/06/25 03:51:21;;;;;;;7.03;2.40;;;;;;;;;;4969518;28;20513;-75
2023/06/25 03:53:52;;;;;;;6.35;2.53;;;;;;;;;;4970215;28;20062;-75
2023/06/25 03:56:24;;;;;;;4.20;2.55;;;;;;;;;;4967524;28;20054;-75
2023/06/25 03:58:54;;;;;;;6.43;2.40;;;;;;;;;;4969894;28;20486;-75
2023/06/25 04:01:26;;;;;;;10.60;2.72;;;;;;;;;;4968048;28;20053;-75
2023/06/25 04:03:58;;;;;;;6.05;2.78;;;;;;;;;;4967598;28;20042;-75
2023/06/25 04:06:31;;;;;;;8.48;2.58;;;;;;;;;;4967141;28;20058;-75
2023/06/25 04:09:03;;;;;;;5.85;2.78;;;;;;;;;;4967893;28;20079;-75
2023/06/25 04:11:34;;;;;;;5.65;2.85;;;;;;;;;;4968071;28;20430;-75
2023/06/25 04:14:06;;;;;;;4.25;2.60;;;;;;;;;;4967469;28;20057;-75
2023/06/25 04:16:37;;;;;;;9.80;2.70;;;;;;;;;;4967610;28;20054;-75
2023/06/25 04:19:08;;;;;;;6.55;2.90;;;;;;;;;;4967092;28;20434;-75
2023/06/25 04:21:39;;;;;;;8.65;2.55;;;;;;;;;;4967417;28;20054;-75
2023/06/25 04:24:09;;;;;;;6.30;2.58;;;;;;;;;;4966988;28;20061;-75
2023/06/25 04:26:39;;;;;;;5.93;2.58;;;;;;;;;;4968996;28;20051;-75
2023/06/25 04:29:11;;;;;;;7.97;3.10;;;;;;;;;;4969225;28;20410;-75
2023/06/25 04:31:44;;;;;;;5.70;2.28;;;;;;;;;;4967263;28;20059;-75
2023/06/25 04:34:15;;;;;;;5.60;2.60;;;;;;;;;;4967474;28;20054;-75
2023/06/25 04:36:48;;;;;;;3.20;2.05;;;;;;;;;;4966731;28;20054;-75
2023/06/25 04:39:18;;;;;;;2.83;1.92;;;;;;;;;;4966397;28;20054;-75
2023/06/25 04:41:49;;;;;;;3.95;2.17;;;;;;;;;;4966994;28;20054;-76
2023/06/25 04:44:20;;;;;;;5.05;2.10;;;;;;;;;;4966854;28;20061;-75
2023/06/25 04:46:50;;;;;;;6.72;2.60;;;;;;;;;;4967104;28;20412;-75
2023/06/25 04:49:20;;;;;;;5.22;2.33;;;;;;;;;;4966535;28;20066;-74
2023/06/25 04:51:51;;;;;;;4.20;2.40;;;;;;;;;;4966776;28;20450;-75
2023/06/25 04:54:21;;;;;;;8.50;2.35;;;;;;;;;;4968445;28;20050;-75
2023/06/25 04:56:51;;;;;;;6.00;2.00;;;;;;;;;;4968480;28;20047;-75
2023/06/25 04:59:21;;;;;;;4.65;2.35;;;;;;;;;;4968789;28;20051;-75
2023/06/25 05:01:53;;;;;;;6.95;2.40;;;;;;;;;;4968254;28;20069;-75
2023/06/25 05:04:24;;;;;;;5.80;2.40;;;;;;;;;;4968303;28;20047;-74
2023/06/25 05:06:55;;;;;;;6.88;2.20;;;;;;;;;;4968746;28;20047;-75
2023/06/25 05:09:25;;;;;;;5.07;2.33;;;;;;;;;;4968304;28;20053;-77
2023/06/25 05:11:56;;;;;;;4.90;2.63;;;;;;;;;;4967440;28;20058;-74
2023/06/25 05:14:28;;;;;;;6.05;2.20;;;;;;;;;;4968081;28;20063;-75
2023/06/25 05:16:59;;;;;;;7.82;2.40;;;;;;;;;;4966233;28;20123;-74
2023/06/25 05:19:29;;;;;;;4.05;2.17;;;;;;;;;;4967722;28;20529;-74
2023/06/25 05:21:59;;;;;;;6.97;2.53;;;;;;;;;;4968070;28;20051;-74
2023/06/25 05:24:29;;;;;;;6.90;2.33;;;;;;;;;;4968335;28;20054;-75
2023/06/25 05:26:59;;;;;;;6.85;2.30;;;;;;;;;;4967868;28;20054;-74
2023/06/25 05:29:29;;;;;;;3.33;2.30;;;;;;;;;;4967117;28;20057;-75
2023/06/25 05:32:00;;;;;;;4.57;2.38;;;;;;;;;;4967869;28;20050;-74
2023/06/25 05:34:30;;;;;;;12.30;2.53;;;;;;;;;;4968232;28;20050;-75
2023/06/25 05:37:00;;;;;;;10.38;2.47;;;;;;;;;;4967614;28;20061;-74
2023/06/25 05:39:30;;;;;;;8.85;2.15;;;;;;;;;;4968512;28;20046;-74
2023/06/25 05:42:01;;;;;;;5.53;2.88;;;;;;;;;;4967603;28;20402;-74
2023/06/25 05:44:31;;;;;;;6.53;2.05;;;;;;;;;;4967883;28;20580;-74
2023/06/25 05:47:02;;;;;;;6.30;2.45;;;;;;;;;;4967801;28;20406;-74
2023/06/25 05:49:33;;;;;;;7.50;1.90;;;;;;;;;;4967610;28;20054;-74
2023/06/25 05:52:05;;;;;;;9.45;2.50;;;;;;;;;;4967776;28;20046;-74
2023/06/25 05:54:36;;;;;;;5.85;2.20;;;;;;;;;;4967899;28;20055;-73
2023/06/25 05:57:06;;;;;;;5.68;2.50;;;;;;;;;;4967495;28;20051;-74
2023/06/25 05:59:36;;;;;;;4.68;2.15;;;;;;;;;;4965215;28;20054;-74
2023/06/25 06:02:10;;;;;;;6.65;2.20;;;;;;;;;;4967081;28;20050;-73
2023/06/25 06:04:40;;;;;;;3.70;2.40;;;;;;;;;;4967352;28;20047;-74
2023/06/25 06:07:10;;;;;;;7.15;2.15;;;;;;;;;;4965030;28;20074;-74
2023/06/25 06:09:42;;;;;;;5.53;2.15;;;;;;;;;;4967012;28;20054;-74
2023/06/25 06:12:13;;;;;;;5.07;2.25;;;;;;;;;;4966898;28;20055;-74
2023/06/25 06:14:45;;;;;;;5.82;2.40;;;;;;;;;;4966423;28;20641;-74
2023/06/25 06:17:15;;;;;;;5.55;2.13;;;;;;;;;;4967078;28;20051;-74
2023/06/25 06:19:45;;;;;;;4.55;2.30;;;;;;;;;;4967017;28;20061;-74
2023/06/25 06:22:17;;;;;;;4.20;2.20;;;;;;;;;;4966513;28;20047;-74
2023/06/25 06:24:52;;;;;;;5.45;2.45;;;;;;;;;;4967149;28;20049;-74
2023/06/25 06:27:22;;;;;;;4.88;2.33;;;;;;;;;;4967332;28;20051;-73
2023/06/25 06:29:52;;;;;;;3.78;1.90;;;;;;;;;;4967584;28;20050;-74
2023/06/25 06:32:22;;;;;;;8.13;1.88;;;;;;;;;;4966728;28;20055;-74
2023/06/25 06:34:52;;;;;;;6.55;2.03;;;;;;;;;;4966716;28;20055;-74
2023/06/25 06:37:23;;;;;;;4.47;2.22;;;;;;;;;;4966299;28;20057;-74
2023/06/25 06:39:54;;;;;;;6.03;2.08;;;;;;;;;;4966884;28;20050;-75
2023/06/25 06:42:24;;;;;;;4.25;2.10;;;;;;;;;;4966557;28;20050;-74
2023/06/25 06:44:54;;;;;;;5.78;2.15;;;;;;;;;;4967057;28;20061;-74
2023/06/25 06:47:24;;;;;;;8.65;2.03;;;;;;;;;;4966411;28;20047;-74
2023/06/25 06:49:55;;;;;;;3.50;2.13;;;;;;;;;;4966535;28;20055;-74
2023/06/25 06:52:27;;;;;;;3.67;2.20;;;;;;;;;;4966361;28;20089;-75
2023/06/25 06:54:57;;;;;;;3.28;1.90;;;;;;;;;;4964975;28;20066;-74
2023/06/25 06:57:27;;;;;;;5.30;1.88;;;;;;;;;;4966210;28;20104;-74
2023/06/25 06:59:57;;;;;;;9.35;2.42;;;;;;;;;;4966509;28;20050;-74
2023/06/25 07:02:28;;;;;;;2.92;2.00;;;;;;;;;;4966211;28;20050;-74
2023/06/25 07:04:58;;;;;;;4.30;2.08;;;;;;;;;;4966308;28;20046;-74
2023/06/25 07:07:29;;;;;;;4.57;1.98;;;;;;;;;;4966267;28;20048;-74
2023/06/25 07:09:59;;;;;;;4.47;2.20;;;;;;;;;;4965981;28;20510;-74
2023/06/25 07:12:30;;;;;;;5.80;1.92;;;;;;;;;;4965978;28;20498;-74
2023/06/25 07:15:01;;;;;;;3.17;2.13;;;;;;;;;;4966164;28;20388;-75
2023/06/25 07:17:32;;;;;;;5.78;2.35;;;;;;;;;;4966133;28;20414;-75
2023/06/25 07:20:02;;;;;;;4.90;2.25;;;;;;;;;;4966553;28;20046;-75
2023/06/25 07:22:33;;;;;;;6.07;2.25;;;;;;;;;;4965728;28;20055;-75
2023/06/25 07:25:04;;;;;;;6.32;2.08;;;;;;;;;;4966091;28;20525;-76
2023/06/25 07:27:34;;;;;;;7.75;2.05;;;;;;;;;;4966257;28;20047;-75
2023/06/25 07:30:05;;;;;;;6.88;2.10;;;;;;;;;;4964815;28;20501;-75
2023/06/25 07:32:36;;;;;;;3.33;1.90;;;;;;;;;;4966180;28;20497;-75
2023/06/25 07:35:06;;;;;;;3.60;2.00;;;;;;;;;;4966007;28;20528;-75
2023/06/25 07:37:37;;;;;;;3.45;1.73;;;;;;;;;;4966627;28;20052;-75
2023/06/25 07:40:07;;;;;;;5.53;1.90;;;;;;;;;;4965639;28;20050;-76
2023/06/25 07:42:37;;;;;;;7.65;2.15;;;;;;;;;;4965719;28;20070;-76
2023/06/25 07:45:09;;;;;;;2.40;1.63;;;;;;;;;;4966149;28;20520;-75
2023/06/25 07:47:40;;;;;;;4.60;1.80;;;;;;;;;;4965911;28;20059;-75
2023/06/25 07:50:11;;;;;;;3.72;2.20;;;;;;;;;;4965835;28;20620;-75
2023/06/25 07:52:40;;;;;;;5.38;2.13;;;;;;;;;;4966100;28;20050;-75
2023/06/25 07:55:11;;;;;;;3.70;2.17;;;;;;;;;;4965977;28;20047;-75
2023/06/25 07:57:41;;;;;;;5.97;2.05;;;;;;;;;;4965830;28;20053;-75
2023/06/25 08:00:13;;;;;;;5.07;2.00;;;;;;;;;;4965653;28;20054;-76
2023/06/25 08:02:43;;;;;;;4.05;2.30;;;;;;;;;;4965289;28;20067;-75
2023/06/25 08:05:13;;;;;;;6.95;1.98;;;;;;;;;;4966236;28;20502;-76
2023/06/25 08:07:43;;;;;;;2.85;1.70;;;;;;;;;;4965751;28;20043;-75
2023/06/25 08:10:17;;;;;;;3.47;2.00;;;;;;;;;;4966402;28;20058;-75
2023/06/25 08:12:48;;;;;;;5.13;1.98;;;;;;;;;;4965736;28;20504;-75
2023/06/25 08:15:18;;;;;;;4.72;2.20;;;;;;;;;;4965696;28;20055;-75
2023/06/25 08:17:48;;;;;;;3.50;2.00;;;;;;;;;;4965675;28;20058;-74
2023/06/25 08:20:18;;;;;;;6.40;2.50;;;;;;;;;;4965517;28;20418;-75
2023/06/25 08:22:49;;;;;;;3.83;2.30;;;;;;;;;;4967466;28;20506;-75
2023/06/25 08:25:23;;;;;;;3.50;1.83;;;;;;;;;;4969193;28;20047;-75
2023/06/25 08:27:54;;;;;;;4.97;1.73;;;;;;;;;;4968191;28;20507;-75
2023/06/25 08:30:24;;;;;;;2.75;2.33;;;;;;;;;;4967654;28;20422;-75
2023/06/25 08:32:55;;;;;;;7.70;1.85;;;;;;;;;;4968726;28;20498;-75
2023/06/25 08:35:26;;;;;;;3.60;2.00;;;;;;;;;;4968844;28;20047;-75
2023/06/25 08:37:56;;;;;;;9.27;2.38;;;;;;;;;;4968846;28;20046;-75
2023/06/25 08:40:30;;;;;;;3.60;1.90;;;;;;;;;;4968905;28;20050;-75
2023/06/25 08:43:01;;;;;;;3.22;1.85;;;;;;;;;;4969042;28;20050;-75
2023/06/25 08:45:33;;;;;;;3.35;1.80;;;;;;;;;;4969233;28;20046;-75
2023/06/25 08:48:12;;;;;;;3.40;1.60;;;;;;;;;;4968589;28;20050;-75
2023/06/25 08:50:51;;;;;;;4.47;1.75;;;;;;;;;;4968827;28;20061;-75
2023/06/25 08:53:26;;;;;;;4.57;1.98;;;;;;;;;;4968841;28;20054;-75
2023/06/25 08:56:00;;;;;;;3.55;2.10;;;;;;;;;;4968643;28;20438;-75
2023/06/25 08:58:31;;;;;;;3.17;1.52;;;;;;;;;;4968774;28;20054;-75
2023/06/25 09:01:02;;;;;;;3.58;1.70;;;;;;;;;;4969000;28;20058;-75
2023/06/25 09:03:34;;;;;;;5.00;2.03;;;;;;;;;;4968626;28;20050;-75
2023/06/25 09:06:15;;;;;;;3.83;1.60;;;;;;;;;;4968184;28;20043;-76
2023/06/25 09:08:45;;;;;;;5.32;1.98;;;;;;;;;;4967822;28;20046;-75
2023/06/25 09:11:15;;;;;;;5.38;1.50;;;;;;;;;;4968076;28;20047;-75
2023/06/25 09:13:46;;;;;;;3.75;1.95;;;;;;;;;;4967787;28;20415;-75
2023/06/25 09:16:17;;;;;;;3.92;1.80;;;;;;;;;;4968191;28;20039;-75
2023/06/25 09:18:47;;;;;;;4.53;1.50;;;;;;;;;;4968031;28;20078;-76
2023/06/25 09:21:18;;;;;;;3.00;1.50;;;;;;;;;;4967558;28;20055;-75
2023/06/25 09:23:51;;;;;;;3.10;1.83;;;;;;;;;;4967849;28;20047;-75
2023/06/25 09:26:23;;;;;;;3.90;1.58;;;;;;;;;;4968091;28;20058;-75
2023/06/25 09:28:59;;;;;;;4.07;1.75;;;;;;;;;;4968134;28;20055;-75
2023/06/25 09:31:33;;;;;;;3.83;1.95;;;;;;;;;;4968110;28;20043;-75
2023/06/25 09:34:07;;;;;;;7.25;1.80;;;;;;;;;;4967248;28;20058;-75
2023/06/25 09:36:38;;;;;;;5.93;1.63;;;;;;;;;;4967767;28;20051;-75
2023/06/25 09:39:10;;;;;;;5.57;1.90;;;;;;;;;;4967741;28;20067;-75
2023/06/25 09:41:41;;;;;;;6.07;2.45;;;;;;;;;;4967570;28;20054;-76
2023/06/25 09:44:12;;;;;;;4.22;1.63;;;;;;;;;;4967492;28;20043;-76
2023/06/25 09:46:46;;;;;;;4.35;1.83;;;;;;;;;;4967881;28;20051;-76
2023/06/25 09:49:20;;;;;;;4.53;1.63;;;;;;;;;;4967967;28;20054;-75
2023/06/25 09:51:56;;;;;;;3.75;1.85;;;;;;;;;;4967933;28;20057;-75
2023/06/25 09:54:29;;;;;;;6.97;2.03;;;;;;;;;;4967307;28;20051;-75
2023/06/25 09:57:09;;;;;;;5.90;1.92;;;;;;;;;;4967474;28;20149;-77
2023/06/25 09:59:40;;;;;;;7.50;2.42;;;;;;;;;;4967862;28;20500;-75
2023/06/25 10:02:12;;;;;;;2.97;1.85;;;;;;;;;;4966922;28;20061;-74
2023/06/25 10:04:44;;;;;;;3.13;1.85;;;;;;;;;;4967506;28;20051;-74
2023/06/25 10:07:23;;;;;;;7.07;2.40;;;;;;;;;;4966465;28;20446;-75
2023/06/25 10:09:55;;;;;;;3.75;1.85;;;;;;;;;;4965274;28;20496;-75
2023/06/25 10:12:26;;;;;;;4.85;1.92;;;;;;;;;;4967158;28;20046;-74
2023/06/25 10:15:01;;;;;;;4.22;1.75;;;;;;;;;;4966435;28;20051;-74
2023/06/25 10:17:33;;;;;;;2.50;1.90;;;;;;;;;;4965521;28;20050;-75
2023/06/25 10:20:05;;;;;;;3.55;2.00;;;;;;;;;;4967263;28;20057;-76
2023/06/25 10:22:35;;;;;;;4.70;2.10;;;;;;;;;;4966993;28;20047;-76
2023/06/25 10:25:05;;;;;;;4.68;1.83;;;;;;;;;;4967524;28;20042;-76
2023/06/25 10:27:35;;;;;;;3.70;1.88;;;;;;;;;;4965462;28;20057;-76
2023/06/25 10:30:16;;;;;;;6.50;2.70;;;;;;;;;;4964864;28;20046;-77
2023/06/25 10:32:47;;;;;;;8.23;2.00;;;;;;;;;;4966901;28;20051;-76
2023/06/25 10:35:18;;;;;;;2.60;1.70;;;;;;;;;;4967003;28;20525;-76
2023/06/25 10:37:48;;;;;;;3.03;1.63;;;;;;;;;;4966854;28;20046;-76
2023/06/25 10:40:20;;;;;;;6.40;2.00;;;;;;;;;;4966875;28;20713;-77
2023/06/25 10:42:50;;;;;;;4.30;2.00;;;;;;;;;;4966392;28;20061;-76
2023/06/25 10:45:20;;;;;;;4.30;1.80;;;;;;;;;;4965810;28;20050;-76
2023/06/25 10:48:04;;;;;;;5.20;2.05;;;;;;;;;;4966502;28;20047;-76
2023/06/25 10:50:45;;;;;;;3.95;2.03;;;;;;;;;;4964445;28;20050;-76
2023/06/25 10:53:17;;;;;;;4.22;1.90;;;;;;;;;;4966320;28;20055;-76
2023/06/25 10:55:50;;;;;;;4.82;1.90;;;;;;;;;;4967074;28;20387;-76
2023/06/25 10:58:24;;;;;;;4.30;2.50;;;;;;;;;;4966480;28;20414;-76
2023/06/25 11:00:57;;;;;;;2.72;1.70;;;;;;;;;;4966307;28;20517;-76
2023/06/25 11:03:36;;;;;;;7.40;1.90;;;;;;;;;;4965671;28;20078;-75
2023/06/25 11:06:06;;;;;;;3.00;1.88;;;;;;;;;;4966967;28;20062;-76
2023/06/25 11:08:36;;;;;;;3.67;2.10;;;;;;;;;;4965884;28;20805;-76
2023/06/25 11:11:06;;;;;;;7.22;2.00;;;;;;;;;;4966711;28;20047;-76
2023/06/25 11:13:37;;;;;;;3.35;2.22;;;;;;;;;;4965664;28;20050;-76
2023/06/25 11:16:08;;;;;;;10.95;4.00;;;;;;;;;;4966028;28;20054;-76
2023/06/25 11:18:37;;;;;;;7.35;4.85;;;;;;;;;;4966131;28;20054;-78
2023/06/25 11:21:09;;;;;;;6.47;3.08;;;;;;;;;;4966228;28;20546;-76
2023/06/25 11:23:44;;;;;;;5.60;2.35;;;;;;;;;;4966198;28;20081;-76
2023/06/25 11:26:17;;;;;;;6.97;4.47;;;;;;;;;;4965954;28;20054;-77
2023/06/25 11:28:49;;;;;;;9.40;2.70;;;;;;;;;;4965028;28;20073;-76
2023/06/25 11:31:20;;;;;;;4.45;2.67;;;;;;;;;;4965670;28;20074;-76
2023/06/25 11:34:00;;;;;;;6.70;3.60;;;;;;;;;;4965862;28;20050;-75
2023/06/25 11:36:33;;;;;;;6.53;3.47;;;;;;;;;;4963837;28;20062;-75
2023/06/25 11:39:08;;;;;;;5.32;2.53;;;;;;;;;;4966446;28;20061;-75
2023/06/25 11:41:38;;;;;;;6.30;3.00;;;;;;;;;;4965805;28;20418;-75
2023/06/25 11:44:21;;;;;;;5.70;2.35;;;;;;;;;;4965973;28;20055;-75
2023/06/25 11:46:53;;;;;;;8.45;3.45;;;;;;;;;;4965670;28;20410;-76
2023/06/25 11:49:25;;;;;;;4.28;2.92;;;;;;;;;;4966264;28;20502;-75
2023/06/25 11:51:57;;;;;;;5.45;3.28;;;;;;;;;;4965709;28;20391;-74
2023/06/25 11:54:28;;;;;;;6.53;2.80;;;;;;;;;;4966129;28;20047;-75
2023/06/25 11:57:01;;;;;;;4.85;1.95;;;;;;;;;;4966294;28;20055;-75
2023/06/25 11:59:31;;;;;;;4.57;2.20;;;;;;;;;;4969889;28;20055;-74
2023/06/25 12:02:00;;;;;;;7.55;2.28;;;;;;;;;;4969468;28;20532;-75
2023/06/25 12:04:31;;;;;;;4.15;1.98;;;;;;;;;;4969390;28;20058;-75
2023/06/25 12:07:01;;;;;;;4.05;2.08;;;;;;;;;;4969143;28;20082;-74
2023/06/25 12:09:32;;;;;;;5.47;1.80;;;;;;;;;;4968659;28;20050;-75
2023/06/25 12:12:03;;;;;;;5.57;1.92;;;;;;;;;;4968197;28;20057;-75
2023/06/25 12:14:33;;;;;;;7.82;1.92;;;;;;;;;;4968834;28;20047;-74
2023/06/25 12:17:06;;;;;;;7.65;2.30;;;;;;;;;;4969300;28;20058;-75
2023/06/25 12:19:37;;;;;;;4.82;1.77;;;;;;;;;;4967877;28;20499;-75
2023/06/25 12:22:07;;;;;;;3.55;1.83;;;;;;;;;;4969022;28;20051;-74
2023/06/25 12:24:38;;;;;;;9.65;1.90;;;;;;;;;;4968671;28;20510;-74
2023/06/25 12:27:09;;;;;;;2.70;1.55;;;;;;;;;;4969187;28;20047;-75
2023/06/25 12:29:40;;;;;;;6.82;1.90;;;;;;;;;;4969519;28;20050;-74
2023/06/25 12:32:10;;;;;;;6.65;1.83;;;;;;;;;;4968839;28;20054;-75
2023/06/25 12:34:40;;;;;;;7.90;2.10;;;;;;;;;;4969082;28;20055;-77
2023/06/25 12:37:11;;;;;;;6.43;2.15;;;;;;;;;;4968382;28;20055;-75
2023/06/25 12:39:41;;;;;;;8.63;2.10;;;;;;;;;;4968460;28;20058;-74
2023/06/25 12:42:12;;;;;;;4.05;1.80;;;;;;;;;;4968775;28;20057;-75
2023/06/25 12:44:42;;;;;;;4.65;1.90;;;;;;;;;;4968997;28;20059;-75
2023/06/25 12:47:12;;;;;;;3.20;1.52;;;;;;;;;;4968593;28;20058;-74
2023/06/25 12:49:42;;;;;;;13.75;1.95;;;;;;;;;;4969202;28;20042;-75
2023/06/25 12:52:12;;;;;;;4.93;1.70;;;;;;;;;;4968511;28;20430;-74
2023/06/25 12:54:43;;;;;;;9.23;2.58;;;;;;;;;;4968807;28;20050;-76
2023/06/25 12:57:13;;;;;;;6.10;1.77;;;;;;;;;;4968287;28;20124;-75
2023/06/25 12:59:43;;;;;;;6.88;1.80;;;;;;;;;;4968748;28;20047;-75
2023/06/25 13:02:13;;;;;;;9.05;2.50;;;;;;;;;;4968333;28;20051;-75
2023/06/25 13:04:44;;;;;;;6.30;2.30;;;;;;;;;;4968507;28;20061;-75
2023/06/25 13:07:15;;;;;;;5.47;2.00;;;;;;;;;;4968149;28;20052;-76
2023/06/25 13:09:46;;;;;;;3.70;2.08;;;;;;;;;;4968105;28;20053;-74
2023/06/25 13:12:18;;;;;;;3.92;2.00;;;;;;;;;;4968170;28;20051;-75
2023/06/25 13:14:49;;;;;;;6.63;1.73;;;;;;;;;;4967873;28;20050;-74
2023/06/25 13:17:21;;;;;;;5.40;1.90;;;;;;;;;;4968473;28;20074;-75
2023/06/25 13:19:52;;;;;;;8.57;2.20;;;;;;;;;;4968594;28;20042;-75
2023/06/25 13:22:22;;;;;;;2.95;1.73;;;;;;;;;;4968220;28;20545;-75
2023/06/25 13:24:53;;;;;;;5.53;2.00;;;;;;;;;;4965863;28;20062;-77
2023/06/25 13:27:23;;;;;;;4.60;1.90;;;;;;;;;;4967649;28;20050;-75
2023/06/25 13:29:53;;;;;;;3.95;1.80;;;;;;;;;;4966156;28;20047;-76
2023/06/25 13:32:23;;;;;;;4.90;1.90;;;;;;;;;;4968027;28;20066;-76
2023/06/25 13:34:54;;;;;;;3.65;1.60;;;;;;;;;;4968251;28;20050;-74
2023/06/25 13:37:23;;;;;;;5.93;2.20;;;;;;;;;;4967623;28;20051;-75
2023/06/25 13:39:54;;;;;;;6.70;1.88;;;;;;;;;;4968461;28;20498;-75
2023/06/25 13:42:24;;;;;;;4.70;1.88;;;;;;;;;;4967753;28;20050;-75
2023/06/25 13:44:57;;;;;;;8.23;1.88;;;;;;;;;;4967956;28;20538;-75
2023/06/25 13:47:27;;;;;;;5.28;1.77;;;;;;;;;;4967692;28;20046;-74
2023/06/25 13:49:57;;;;;;;4.57;1.70;;;;;;;;;;4966458;28;20065;-79
2023/06/25 13:52:30;;;;;;;6.60;2.15;;;;;;;;;;4966596;28;20402;-75
2023/06/25 13:55:01;;;;;;;3.85;2.40;;;;;;;;;;4969420;28;20047;-74
2023/06/25 13:57:32;;;;;;;8.60;3.95;;;;;;;;;;4967352;28;20054;-76
2023/06/25 14:00:02;;;;;;;5.30;2.13;;;;;;;;;;4967518;28;20046;-74
2023/06/25 14:02:33;;;;;;;5.18;2.20;;;;;;;;;;4967621;28;20407;-74
2023/06/25 14:05:09;;;;;;;4.50;2.05;;;;;;;;;;4967075;28;20055;-75
2023/06/25 14:07:39;;;;;;;7.35;2.90;;;;;;;;;;4967608;28;20046;-75
2023/06/25 14:10:09;;;;;;;6.40;3.72;;;;;;;;;;4967492;28;20051;-74
2023/06/25 14:12:40;;;;;;;15.05;7.25;;;;;;;;;;4967201;28;20066;-74
2023/06/25 14:15:11;;;;;;;11.15;7.13;;;;;;;;;;4967122;28;20528;-74
2023/06/25 14:17:41;;;;;;;8.82;4.93;;;;;;;;;;4966844;28;20059;-74
2023/06/25 14:20:11;;;;;;;10.50;5.55;;;;;;;;;;4966484;28;20046;-74
2023/06/25 14:22:41;;;;;;;10.57;4.35;;;;;;;;;;4965745;28;20510;-75
2023/06/25 14:25:12;;;;;;;8.27;3.20;;;;;;;;;;4967165;28;20057;-74
2023/06/25 14:27:42;;;;;;;6.07;3.17;;;;;;;;;;4967540;28;20050;-78
2023/06/25 14:30:13;;;;;;;5.63;3.00;;;;;;;;;;4967360;28;20050;-75
2023/06/25 14:32:43;;;;;;;7.10;3.22;;;;;;;;;;4967453;28;20514;-77
2023/06/25 14:35:14;;;;;;;11.05;2.90;;;;;;;;;;4966955;28;20050;-76
2023/06/25 14:37:46;;;;;;;7.10;3.72;;;;;;;;;;4966449;28;20842;-74
2023/06/25 14:40:16;;;;;;;4.55;2.90;;;;;;;;;;4966994;28;20058;-75
2023/06/25 14:42:46;;;;;;;8.30;3.55;;;;;;;;;;4965708;28;20399;-75
2023/06/25 14:45:17;;;;;;;9.32;2.85;;;;;;;;;;4967178;28;20042;-74
2023/06/25 14:47:48;;;;;;;6.82;3.40;;;;;;;;;;4964985;28;20541;-74
2023/06/25 14:50:19;;;;;;;7.45;3.00;;;;;;;;;;4966184;28;20051;-74
2023/06/25 14:52:49;;;;;;;8.45;3.70;;;;;;;;;;4966162;28;20054;-74
2023/06/25 14:55:19;;;;;;;13.15;3.42;;;;;;;;;;4967016;28;20054;-74
2023/06/25 14:57:49;;;;;;;7.70;3.17;;;;;;;;;;4964351;28;20066;-75
2023/06/25 15:00:20;;;;;;;11.25;3.53;;;;;;;;;;4966381;28;20509;-74
2023/06/25 15:02:50;;;;;;;6.85;3.90;;;;;;;;;;4966790;28;20051;-78
2023/06/25 15:05:20;;;;;;;5.80;3.45;;;;;;;;;;4966645;28;20050;-74
2023/06/25 15:07:50;;;;;;;6.28;3.60;;;;;;;;;;4966648;28;20061;-74
2023/06/25 15:10:21;;;;;;;8.50;3.70;;;;;;;;;;4966376;28;20059;-75